createdAt,value
2022-12-06T00:01:29.305Z,6.37
2022-12-06T00:04:00.237Z,5.84
2022-12-06T00:06:31.061Z,5.76
2022-12-06T00:08:58.965Z,6.13
2022-12-06T00:11:32.508Z,5.86
2022-12-06T00:14:02.682Z,5.93
2022-12-06T00:16:30.195Z,5.99
2022-12-06T00:18:58.629Z,6.07
2022-12-06T00:21:29.882Z,5.77
2022-12-06T00:24:06.875Z,5.91
2022-12-06T00:26:37.382Z,6.34
2022-12-06T00:29:04.881Z,5.76
2022-12-06T00:31:34.887Z,5.07
2022-12-06T00:34:02.581Z,4.73
2022-12-06T00:36:32.654Z,5.89
2022-12-06T00:39:01.194Z,5.57
2022-12-06T00:41:28.373Z,5.58
2022-12-06T00:43:55.557Z,6.36
2022-12-06T00:46:27.418Z,6.18
2022-12-06T00:48:56.132Z,5.95
2022-12-06T00:51:24.983Z,6.12
2022-12-06T00:53:52.491Z,5.71
2022-12-06T00:56:19.939Z,4.84
2022-12-06T00:58:47.215Z,5.95
2022-12-06T01:01:21.805Z,6.42
2022-12-06T01:03:52.267Z,5.63
2022-12-06T01:06:23.047Z,5.75
2022-12-06T01:08:50.756Z,5.87
2022-12-06T01:11:18.680Z,6.10
2022-12-06T01:13:45.624Z,6.42
2022-12-06T01:16:20.536Z,6.09
2022-12-06T01:18:47.732Z,6.00
2022-12-06T01:21:17.963Z,5.46
2022-12-06T01:23:46.111Z,5.61
2022-12-06T01:26:24.756Z,6.42
2022-12-06T01:28:51.748Z,6.43
2022-12-06T01:31:22.088Z,6.40
2022-12-06T01:33:49.669Z,5.99
2022-12-06T01:36:22.517Z,5.45
2022-12-06T01:39:01.165Z,6.22
2022-12-06T01:41:28.521Z,5.79
2022-12-06T01:43:56.469Z,5.73
2022-12-06T01:46:38.655Z,5.67
2022-12-06T01:49:22.208Z,5.00
2022-12-06T01:51:57.110Z,5.67
2022-12-06T01:54:24.716Z,5.87
2022-12-06T01:56:54.089Z,6.29
2022-12-06T01:59:21.856Z,6.28
2022-12-06T02:04:29.774Z,5.78
2022-12-06T02:06:58.190Z,6.25
2022-12-06T02:09:26.959Z,5.99
2022-12-06T02:11:53.961Z,5.97
2022-12-06T02:14:25.363Z,5.75
2022-12-06T02:17:26.131Z,6.23
2022-12-06T02:20:23.220Z,6.20
2022-12-06T02:23:23.551Z,6.18
2022-12-06T02:26:20.497Z,6.17
2022-12-06T02:28:56.084Z,6.16
2022-12-06T02:31:45.610Z,6.16
2022-12-06T02:34:43.251Z,6.14
2022-12-06T02:37:17.934Z,5.74
2022-12-06T02:40:07.368Z,6.13
2022-12-06T02:42:57.017Z,5.91
2022-12-06T02:45:33.329Z,5.75
2022-12-06T02:48:03.767Z,6.12
2022-12-06T02:50:37.470Z,5.94
2022-12-06T02:53:09.135Z,5.80
2022-12-06T02:55:36.464Z,5.80
2022-12-06T02:58:03.475Z,6.11
2022-12-06T03:00:46.886Z,6.11
2022-12-06T03:03:28.771Z,6.10
2022-12-06T03:06:16.695Z,5.85
2022-12-06T03:09:07.675Z,6.04
2022-12-06T03:12:25.728Z,5.89
2022-12-06T03:15:26.631Z,5.48
2022-12-06T03:18:19.164Z,5.95
2022-12-06T03:21:02.112Z,5.68
2022-12-06T03:23:33.991Z,5.69
2022-12-06T03:26:01.564Z,6.02
2022-12-06T03:28:29.604Z,5.56
2022-12-06T03:31:02.723Z,5.36
2022-12-06T03:33:30.725Z,6.06
2022-12-06T03:35:58.805Z,5.89
2022-12-06T03:38:43.653Z,6.06
2022-12-06T03:41:11.185Z,5.88
2022-12-06T03:43:38.347Z,5.64
2022-12-06T03:46:19.135Z,6.06
2022-12-06T03:48:54.224Z,6.03
2022-12-06T03:51:26.862Z,5.48
2022-12-06T03:53:56.988Z,6.03
2022-12-06T03:56:24.224Z,5.88
2022-12-06T03:58:51.521Z,5.53
2022-12-06T04:01:18.895Z,5.84
2022-12-06T04:03:45.968Z,6.05
2022-12-06T04:06:13.604Z,5.79
2022-12-06T04:08:40.630Z,6.03
2022-12-06T04:11:07.836Z,6.03
2022-12-06T04:13:35.850Z,5.78
2022-12-06T04:16:03.489Z,5.84
2022-12-06T04:18:30.534Z,5.21
2022-12-06T04:21:19.495Z,5.29
2022-12-06T04:23:49.813Z,5.28
2022-12-06T04:26:20.538Z,5.89
2022-12-06T04:29:06.333Z,6.03
2022-12-06T04:31:52.267Z,5.13
2022-12-06T04:34:38.040Z,5.17
2022-12-06T04:37:23.999Z,6.01
2022-12-06T04:39:51.077Z,5.69
2022-12-06T04:42:37.384Z,6.01
2022-12-06T04:45:05.794Z,4.82
2022-12-06T04:47:32.746Z,6.01
2022-12-06T04:49:59.952Z,5.62
2022-12-06T04:52:31.263Z,5.21
2022-12-06T04:55:01.131Z,5.45
2022-12-06T04:57:31.288Z,5.37
2022-12-06T05:00:01.628Z,5.41
2022-12-06T05:02:28.784Z,5.86
2022-12-06T05:04:55.728Z,5.73
2022-12-06T05:07:22.763Z,5.92
2022-12-06T05:09:49.717Z,6.12
2022-12-06T05:12:16.855Z,6.12
2022-12-06T05:14:43.802Z,5.95
2022-12-06T05:17:10.727Z,5.45
2022-12-06T05:19:37.687Z,5.44
2022-12-06T05:22:04.664Z,6.09
2022-12-06T05:24:31.629Z,5.72
2022-12-06T05:26:58.583Z,5.87
2022-12-06T05:29:25.529Z,5.68
2022-12-06T05:31:52.527Z,5.65
2022-12-06T05:34:19.548Z,6.07
2022-12-06T05:36:46.896Z,6.06
2022-12-06T05:39:13.899Z,5.48
2022-12-06T05:41:40.953Z,5.55
2022-12-06T05:44:10.638Z,6.01
2022-12-06T05:46:37.581Z,5.21
2022-12-06T05:49:04.638Z,5.63
2022-12-06T05:51:31.645Z,5.56
2022-12-06T05:53:58.621Z,5.55
2022-12-06T05:56:25.556Z,4.45
2022-12-06T05:58:52.501Z,5.18
2022-12-06T06:01:19.458Z,5.62
2022-12-06T06:03:47.929Z,5.44
2022-12-06T06:06:15.539Z,4.84
2022-12-06T06:08:44.402Z,5.98
2022-12-06T06:11:11.685Z,5.78
2022-12-06T06:13:38.665Z,5.95
2022-12-06T06:16:05.946Z,5.26
2022-12-06T06:18:33.056Z,5.94
2022-12-06T06:21:00.986Z,5.74
2022-12-06T06:23:29.204Z,5.19
2022-12-06T06:25:56.427Z,5.92
2022-12-06T06:28:23.831Z,5.30
2022-12-06T06:30:51.124Z,4.86
2022-12-06T06:33:18.303Z,5.47
2022-12-06T06:35:45.488Z,5.92
2022-12-06T06:38:15.386Z,5.39
2022-12-06T06:40:45.573Z,5.58
2022-12-06T06:43:18.567Z,5.68
2022-12-06T06:45:57.832Z,4.82
2022-12-06T06:48:26.941Z,5.05
2022-12-06T06:50:57.667Z,5.04
2022-12-06T06:53:28.045Z,5.22
2022-12-06T06:55:55.509Z,5.69
2022-12-06T06:58:23.044Z,5.09
2022-12-06T07:00:59.771Z,5.64
2022-12-06T07:03:27.975Z,5.84
2022-12-06T07:06:03.591Z,5.51
2022-12-06T07:08:31.598Z,5.79
2022-12-06T07:10:59.025Z,5.26
2022-12-06T07:13:27.822Z,5.78
2022-12-06T07:15:54.816Z,5.21
2022-12-06T07:18:22.477Z,5.70
2022-12-06T07:20:50.340Z,5.29
2022-12-06T07:23:17.365Z,5.37
2022-12-06T07:25:44.483Z,4.69
2022-12-06T07:28:11.603Z,2.94
2022-12-06T07:30:38.741Z,3.11
2022-12-06T07:33:05.783Z,2.06
2022-12-06T07:36:03.516Z,5.43
2022-12-06T07:38:20.488Z,5.39
2022-12-06T07:41:03.900Z,5.19
2022-12-06T07:43:50.481Z,4.65
2022-12-06T07:46:17.577Z,3.43
2022-12-06T07:48:44.934Z,3.47
2022-12-06T07:51:11.998Z,4.88
2022-12-06T07:53:39.263Z,4.47
2022-12-06T07:56:08.267Z,3.44
2022-12-06T07:58:35.448Z,4.61
2022-12-06T08:01:06.613Z,4.34
2022-12-06T08:03:34.242Z,4.98
2022-12-06T08:06:01.502Z,4.59
2022-12-06T08:08:29.366Z,4.54
2022-12-06T08:11:03.952Z,4.91
2022-12-06T08:13:31.018Z,4.64
2022-12-06T08:15:58.165Z,4.46
2022-12-06T08:18:26.084Z,4.60
2022-12-06T08:20:53.597Z,3.81
2022-12-06T08:23:25.801Z,4.27
2022-12-06T08:26:16.413Z,4.08
2022-12-06T08:32:21.228Z,3.62
2022-12-06T08:34:48.536Z,3.01
2022-12-06T08:37:15.515Z,4.21
2022-12-06T08:39:43.230Z,3.00
2022-12-06T08:42:10.408Z,4.72
2022-12-06T08:44:37.404Z,4.75
2022-12-06T08:47:04.905Z,3.17
2022-12-06T08:49:32.113Z,4.79
2022-12-06T08:52:00.406Z,4.82
2022-12-06T08:54:27.820Z,4.85
2022-12-06T08:56:55.233Z,3.63
2022-12-06T08:59:23.206Z,4.30
2022-12-06T09:01:50.290Z,4.56
2022-12-06T09:04:17.518Z,4.73
2022-12-06T09:06:45.435Z,2.32
2022-12-06T09:09:17.429Z,5.26
2022-12-06T09:11:45.672Z,4.44
2022-12-06T09:14:21.619Z,4.92
2022-12-06T09:16:50.258Z,4.53
2022-12-06T09:19:17.322Z,4.02
2022-12-06T09:21:44.374Z,4.74
2022-12-06T09:24:16.918Z,5.55
2022-12-06T09:26:44.316Z,4.84
2022-12-06T09:29:11.761Z,4.72
2022-12-06T09:31:40.397Z,3.80
2022-12-06T09:34:09.599Z,5.67
2022-12-06T09:36:59.745Z,5.34
2022-12-06T09:39:58.225Z,4.68
2022-12-06T09:42:44.956Z,5.75
2022-12-06T09:45:25.395Z,5.77
2022-12-06T09:48:21.118Z,5.77
2022-12-06T09:50:54.035Z,5.76
2022-12-06T09:53:36.480Z,5.56
2022-12-06T09:56:31.876Z,5.77
2022-12-06T09:59:25.466Z,5.80
2022-12-06T10:02:16.737Z,5.85
2022-12-06T10:05:28.279Z,5.84
2022-12-06T10:08:36.302Z,5.57
2022-12-06T10:11:42.041Z,5.05
2022-12-06T10:14:41.029Z,5.87
2022-12-06T10:17:35.995Z,5.93
2022-12-06T10:20:13.964Z,5.98
2022-12-06T10:23:04.911Z,6.02
2022-12-06T10:25:52.352Z,6.07
2022-12-06T10:28:39.166Z,6.12
2022-12-06T10:31:28.423Z,5.84
2022-12-06T10:34:24.062Z,6.17
2022-12-06T10:37:27.863Z,6.20
2022-12-06T10:40:07.331Z,6.20
2022-12-06T10:43:14.365Z,6.22
2022-12-06T10:46:09.736Z,5.91
2022-12-06T10:49:26.998Z,6.25
2022-12-06T10:52:23.161Z,6.02
2022-12-06T10:55:03.564Z,6.15
2022-12-06T10:58:12.937Z,6.32
2022-12-06T11:01:05.387Z,5.63
2022-12-06T11:03:42.813Z,6.34
2022-12-06T11:06:16.071Z,6.21
2022-12-06T11:08:51.320Z,5.96
2022-12-06T11:11:26.184Z,5.43
2022-12-06T11:14:01.621Z,6.11
2022-12-06T11:16:38.687Z,6.21
2022-12-06T11:19:32.719Z,6.22
2022-12-06T11:22:24.603Z,6.24
2022-12-06T11:25:00.749Z,6.50
2022-12-06T11:27:34.819Z,6.31
2022-12-06T11:30:19.793Z,6.58
2022-12-06T11:32:49.823Z,6.07
2022-12-06T11:35:21.098Z,6.41
2022-12-06T11:37:51.825Z,5.92
2022-12-06T11:40:37.996Z,6.83
2022-12-06T11:43:08.748Z,6.25
2022-12-06T11:45:40.085Z,6.48
2022-12-06T11:48:22.855Z,6.59
2022-12-06T11:50:51.411Z,6.84
2022-12-06T11:53:30.593Z,6.84
2022-12-06T11:56:03.652Z,6.83
2022-12-06T11:58:56.078Z,6.82
2022-12-06T12:01:50.489Z,6.83
2022-12-06T12:04:24.751Z,6.85
2022-12-06T12:07:10.025Z,6.88
2022-12-06T12:10:04.238Z,6.69
2022-12-06T12:13:04.468Z,6.32
2022-12-06T12:15:32.677Z,6.47
2022-12-06T12:18:01.032Z,6.61
2022-12-06T12:20:36.570Z,7.01
2022-12-06T12:23:05.153Z,6.48
2022-12-06T12:25:35.143Z,7.10
2022-12-06T12:28:04.216Z,6.21
2022-12-06T12:30:37.512Z,6.84
2022-12-06T12:33:07.638Z,7.27
2022-12-06T12:35:42.868Z,5.65
2022-12-06T12:38:41.759Z,6.46
2022-12-06T12:41:33.708Z,6.30
2022-12-06T12:44:42.432Z,7.29
2022-12-06T12:47:20.605Z,6.76
2022-12-06T12:50:20.247Z,6.32
2022-12-06T12:52:47.545Z,5.89
2022-12-06T12:55:25.915Z,7.17
2022-12-06T12:58:00.131Z,5.52
2022-12-06T13:00:39.073Z,7.05
2022-12-06T13:03:42.836Z,6.58
2022-12-06T13:06:04.048Z,7.45
2022-12-06T13:08:35.269Z,7.43
2022-12-06T13:11:03.822Z,7.03
2022-12-06T13:13:48.423Z,7.44
2022-12-06T13:16:32.841Z,7.24
2022-12-06T13:18:59.989Z,6.73
2022-12-06T13:21:41.139Z,7.38
2022-12-06T13:24:11.060Z,7.43
2022-12-06T13:27:06.933Z,7.44
2022-12-06T13:29:57.318Z,7.06
2022-12-06T13:32:36.986Z,6.63
2022-12-06T13:35:28.224Z,7.44
2022-12-06T13:37:59.184Z,7.01
2022-12-06T13:40:46.678Z,5.32
2022-12-06T13:43:25.862Z,7.46
2022-12-06T13:46:07.745Z,7.47
2022-12-06T13:48:48.349Z,7.08
2022-12-06T13:51:37.870Z,7.40
2022-12-06T13:54:05.063Z,6.99
2022-12-06T13:56:34.699Z,7.37
2022-12-06T13:59:25.902Z,7.34
2022-12-06T14:01:57.062Z,5.74
2022-12-06T14:09:49.589Z,6.19
2022-12-06T14:12:26.702Z,6.80
2022-12-06T14:15:40.158Z,7.24
2022-12-06T14:18:21.930Z,6.82
2022-12-06T14:20:50.964Z,6.44
2022-12-06T14:23:28.368Z,7.25
2022-12-06T14:26:28.878Z,7.24
2022-12-06T14:28:59.618Z,6.08
2022-12-06T14:31:39.264Z,7.25
2022-12-06T14:34:06.406Z,6.30
2022-12-06T14:36:39.106Z,6.73
2022-12-06T14:39:21.038Z,5.61
2022-12-06T14:42:18.290Z,6.65
2022-12-06T14:45:00.366Z,6.46
2022-12-06T14:47:29.231Z,6.72
2022-12-06T14:50:17.630Z,6.42
2022-12-06T14:53:04.944Z,7.13
2022-12-06T14:55:37.372Z,7.13
2022-12-06T14:58:20.127Z,5.07
2022-12-06T15:01:02.176Z,6.65
2022-12-06T15:03:34.419Z,6.90
2022-12-06T15:06:22.071Z,6.60
2022-12-06T15:08:58.954Z,7.11
2022-12-06T15:11:52.993Z,7.12
2022-12-06T15:14:40.630Z,6.45
2022-12-06T15:17:10.527Z,6.99
2022-12-06T15:19:46.576Z,6.34
2022-12-06T15:22:29.302Z,6.95
2022-12-06T15:24:58.132Z,7.06
2022-12-06T15:27:27.928Z,6.02
2022-12-06T15:29:55.258Z,6.67
2022-12-06T15:32:24.202Z,6.03
2022-12-06T15:34:51.174Z,6.86
2022-12-06T15:40:06.019Z,6.51
2022-12-06T15:42:33.020Z,6.68
2022-12-06T15:45:00.222Z,5.80
2022-12-06T15:47:27.322Z,4.35
2022-12-06T15:49:54.376Z,6.17
2022-12-06T15:52:26.299Z,5.70
2022-12-06T15:54:53.317Z,6.40
2022-12-06T15:59:47.477Z,6.42
2022-12-06T16:02:17.297Z,6.75
2022-12-06T16:04:45.752Z,6.10
2022-12-06T16:07:18.682Z,6.92
2022-12-06T16:09:46.850Z,6.17
2022-12-06T16:12:13.839Z,6.89
2022-12-06T16:14:40.987Z,6.88
2022-12-06T16:17:08.116Z,6.56
2022-12-06T16:19:53.764Z,6.08
2022-12-06T16:22:40.729Z,6.83
2022-12-06T16:25:08.189Z,6.80
2022-12-06T16:27:35.147Z,6.44
2022-12-06T16:30:03.836Z,6.09
2022-12-06T16:32:31.057Z,6.62
2022-12-06T16:34:58.509Z,5.98
2022-12-06T16:37:25.731Z,3.72
2022-12-06T16:39:52.759Z,6.54
2022-12-06T16:42:19.717Z,3.74
2022-12-06T16:44:52.673Z,6.12
2022-12-06T16:49:48.455Z,5.37
2022-12-06T16:52:16.920Z,5.75
2022-12-06T16:54:44.105Z,5.22
2022-12-06T16:57:14.858Z,5.70
2022-12-06T16:59:43.099Z,5.19
2022-12-06T17:02:30.107Z,6.46
2022-12-06T17:05:00.391Z,6.42
2022-12-06T17:07:27.817Z,6.31
2022-12-06T17:09:54.863Z,5.33
2022-12-06T17:12:21.895Z,3.80
2022-12-06T17:14:48.924Z,5.03
2022-12-06T17:17:20.294Z,5.36
2022-12-06T17:19:48.072Z,6.25
2022-12-06T17:22:16.636Z,6.04
2022-12-06T17:24:43.824Z,5.22
2022-12-06T17:27:13.890Z,5.09
2022-12-06T17:29:41.778Z,5.51
2022-12-06T17:32:08.738Z,6.13
2022-12-06T17:34:36.311Z,1.88
2022-12-06T17:37:04.012Z,5.28
2022-12-06T17:39:31.055Z,5.32
2022-12-06T17:42:16.801Z,5.35
2022-12-06T17:44:43.805Z,5.88
2022-12-06T17:47:10.827Z,5.28
2022-12-06T17:49:38.503Z,6.01
2022-12-06T17:52:06.120Z,5.62
2022-12-06T17:54:33.081Z,5.45
2022-12-06T17:57:00.170Z,5.62
2022-12-06T17:59:31.905Z,5.56
2022-12-06T18:02:17.294Z,5.83
2022-12-06T18:04:45.930Z,5.98
2022-12-06T18:07:14.121Z,5.72
2022-12-06T18:09:41.430Z,5.23
2022-12-06T18:12:10.413Z,5.58
2022-12-06T18:14:37.556Z,5.95
2022-12-06T18:17:04.692Z,4.99
2022-12-06T18:19:31.975Z,5.69
2022-12-06T18:21:59.008Z,5.52
2022-12-06T18:24:30.509Z,5.92
2022-12-06T18:27:01.179Z,5.91
2022-12-06T18:29:28.286Z,5.52
2022-12-06T18:31:55.426Z,5.54
2022-12-06T18:34:22.523Z,4.87
2022-12-06T18:36:49.499Z,5.49
2022-12-06T18:39:24.300Z,5.96
2022-12-06T18:41:55.299Z,5.74
2022-12-06T18:44:23.008Z,5.50
2022-12-06T18:46:49.975Z,5.64
2022-12-06T18:49:17.239Z,5.88
2022-12-06T18:51:44.235Z,5.85
2022-12-06T18:54:13.662Z,5.85
2022-12-06T18:56:41.582Z,5.68
2022-12-06T18:59:09.287Z,6.03
2022-12-06T19:01:38.847Z,5.70
2022-12-06T19:04:08.479Z,5.82
2022-12-06T19:06:37.749Z,5.77
2022-12-06T19:09:13.810Z,4.85
2022-12-06T19:11:43.566Z,4.52
2022-12-06T19:14:10.570Z,5.45
2022-12-06T19:16:47.088Z,5.50
2022-12-06T19:19:19.004Z,5.68
2022-12-06T19:21:47.357Z,5.93
2022-12-06T19:24:20.090Z,5.30
2022-12-06T19:26:48.736Z,5.55
2022-12-06T19:29:16.550Z,5.75
2022-12-06T19:31:44.359Z,5.54
2022-12-06T19:34:26.021Z,5.84
2022-12-06T19:36:54.753Z,4.10
2022-12-06T19:39:21.875Z,5.44
2022-12-06T19:42:07.831Z,5.63
2022-12-06T19:44:35.111Z,5.63
2022-12-06T19:47:02.218Z,5.62
2022-12-06T19:49:29.344Z,5.85
2022-12-06T19:51:56.469Z,5.98
2022-12-06T19:54:27.124Z,5.89
2022-12-06T19:56:57.111Z,5.62
2022-12-06T19:59:30.079Z,6.22
2022-12-06T20:01:58.487Z,5.77
2022-12-06T20:04:32.568Z,5.49
2022-12-06T20:07:00.018Z,5.68
2022-12-06T20:09:29.973Z,5.93
2022-12-06T20:12:02.201Z,6.30
2022-12-06T20:14:44.179Z,6.01
2022-12-06T20:17:19.175Z,6.27
2022-12-06T20:19:46.650Z,5.84
2022-12-06T20:22:15.606Z,6.11
2022-12-06T20:24:43.341Z,6.28
2022-12-06T20:27:10.637Z,5.93
2022-12-06T20:29:37.840Z,6.13
2022-12-06T20:32:05.041Z,6.31
2022-12-06T20:34:35.026Z,5.86
2022-12-06T20:37:04.049Z,5.25
2022-12-06T20:39:33.213Z,5.91
2022-12-06T20:42:03.205Z,6.36
2022-12-06T20:44:30.493Z,5.96
2022-12-06T20:46:57.746Z,6.34
2022-12-06T20:49:24.824Z,5.58
2022-12-06T20:51:53.617Z,6.35
2022-12-06T20:54:21.420Z,5.97
2022-12-06T20:56:51.887Z,5.04
2022-12-06T20:59:19.582Z,5.65
2022-12-06T21:01:46.869Z,6.34
2022-12-06T21:04:14.454Z,6.10
2022-12-06T21:06:41.673Z,5.94
2022-12-06T21:09:08.718Z,5.24
2022-12-06T21:11:35.728Z,5.96
2022-12-06T21:14:03.989Z,5.64
2022-12-06T21:16:32.669Z,5.66
2022-12-06T21:19:06.509Z,5.72
2022-12-06T21:21:39.142Z,6.27
2022-12-06T21:24:16.802Z,6.25
2022-12-06T21:26:44.197Z,5.75
2022-12-06T21:29:30.125Z,5.69
2022-12-06T21:32:00.681Z,5.71
2022-12-06T21:34:27.753Z,6.23
2022-12-06T21:36:54.755Z,6.00
2022-12-06T21:39:22.423Z,5.94
2022-12-06T21:41:50.030Z,5.61
2022-12-06T21:44:17.099Z,6.13
2022-12-06T21:46:44.186Z,5.71
2022-12-06T21:49:11.902Z,6.08
2022-12-06T21:51:38.992Z,6.04
2022-12-06T21:54:05.972Z,5.80
2022-12-06T21:56:34.946Z,5.56
2022-12-06T21:59:02.413Z,5.62
2022-12-06T22:01:30.819Z,5.58
2022-12-06T22:04:00.439Z,5.11
2022-12-06T22:06:27.774Z,5.32
2022-12-06T22:09:01.612Z,5.66
2022-12-06T22:11:29.727Z,5.67
2022-12-06T22:14:01.396Z,4.79
2022-12-06T22:16:29.008Z,5.49
2022-12-06T22:18:56.461Z,5.03
2022-12-06T22:21:27.662Z,5.65
2022-12-06T22:23:58.195Z,5.18
2022-12-06T22:26:28.228Z,5.45
2022-12-06T22:28:55.635Z,5.01
2022-12-06T22:31:26.613Z,5.67
2022-12-06T22:33:53.993Z,5.60
2022-12-06T22:36:22.061Z,5.03
2022-12-06T22:38:51.015Z,5.61
2022-12-06T22:41:19.161Z,5.53
2022-12-06T22:43:49.956Z,5.90
2022-12-06T22:46:21.135Z,5.62
2022-12-06T22:48:48.264Z,5.54
2022-12-06T22:51:25.107Z,5.31
2022-12-06T22:54:05.320Z,5.28
2022-12-06T22:56:35.827Z,5.81
2022-12-06T22:59:03.235Z,5.23
2022-12-06T23:01:34.229Z,5.34
2022-12-06T23:04:05.709Z,5.32
2022-12-06T23:06:34.352Z,5.45
2022-12-06T23:09:01.422Z,5.20
2022-12-06T23:11:31.254Z,5.55
2022-12-06T23:13:59.008Z,5.54
2022-12-06T23:16:29.098Z,5.07
2022-12-06T23:18:56.962Z,5.50
2022-12-06T23:21:26.181Z,4.87
2022-12-06T23:23:58.467Z,4.85
2022-12-06T23:26:49.788Z,5.17
2022-12-06T23:29:18.979Z,4.75
2022-12-06T23:31:46.698Z,5.20
2022-12-06T23:34:18.695Z,4.77
2022-12-06T23:36:45.665Z,5.29
2022-12-06T23:39:13.222Z,4.52
2022-12-06T23:41:40.210Z,4.61
2022-12-06T23:44:07.826Z,4.73
2022-12-06T23:46:36.748Z,4.20
2022-12-06T23:49:05.630Z,4.70
2022-12-06T23:51:36.060Z,4.23
2022-12-06T23:54:06.697Z,4.90
2022-12-06T23:56:36.913Z,3.70
2022-12-06T23:59:06.182Z,5.13
